createdAt,value
2018-08-20T00:02:29.462Z,9.03
2018-08-20T00:05:07.466Z,7.90
2018-08-20T00:07:44.066Z,11.57
2018-08-20T00:10:26.132Z,7.57
2018-08-20T00:13:02.341Z,7.50
2018-08-20T00:15:40.920Z,8.70
2018-08-20T00:18:22.776Z,10.73
2018-08-20T00:20:59.256Z,8.70
2018-08-20T00:23:35.410Z,11.07
2018-08-20T00:26:11.639Z,7.90
2018-08-20T00:28:48.497Z,7.13
2018-08-20T00:31:25.070Z,7.87
2018-08-20T00:34:00.944Z,7.10
2018-08-20T00:36:36.863Z,7.20
2018-08-20T00:39:13.054Z,7.73
2018-08-20T00:41:49.336Z,7.53
2018-08-20T00:44:25.540Z,8.77
2018-08-20T00:47:06.296Z,9.20
2018-08-20T00:49:42.194Z,8.57
2018-08-20T00:52:18.256Z,8.00
2018-08-20T00:54:54.129Z,7.27
2018-08-20T00:57:30.386Z,7.00
2018-08-20T01:00:06.849Z,8.93
2018-08-20T01:02:42.667Z,7.67
2018-08-20T01:05:18.674Z,10.53
2018-08-20T01:07:56.402Z,9.03
2018-08-20T01:10:32.538Z,9.10
2018-08-20T01:13:09.913Z,11.17
2018-08-20T01:15:45.789Z,11.67
2018-08-20T01:18:21.850Z,7.97
2018-08-20T01:20:58.164Z,7.80
2018-08-20T01:23:34.087Z,9.53
2018-08-20T01:26:10.182Z,7.77
2018-08-20T01:28:46.365Z,9.93
2018-08-20T01:31:22.252Z,8.07
2018-08-20T01:34:00.612Z,7.83
2018-08-20T01:36:36.942Z,8.13
2018-08-20T01:39:13.853Z,8.73
2018-08-20T01:41:50.099Z,8.10
2018-08-20T01:44:25.943Z,7.60
2018-08-20T01:47:02.654Z,9.50
2018-08-20T01:49:40.120Z,10.70
2018-08-20T01:52:16.268Z,9.47
2018-08-20T01:54:52.577Z,7.53
2018-08-20T01:57:28.598Z,7.13
2018-08-20T02:00:06.060Z,10.77
2018-08-20T02:02:43.005Z,8.50
2018-08-20T02:05:19.588Z,8.13
2018-08-20T02:07:56.154Z,8.43
2018-08-20T02:10:33.786Z,7.17
2018-08-20T02:13:11.579Z,8.07
2018-08-20T02:18:46.050Z,7.17
2018-08-20T02:21:28.238Z,8.83
2018-08-20T02:24:04.889Z,7.53
2018-08-20T02:26:46.120Z,8.57
2018-08-20T02:29:23.994Z,9.90
2018-08-20T02:32:06.811Z,9.03
2018-08-20T02:34:45.745Z,9.27
2018-08-20T02:37:27.497Z,8.63
2018-08-20T02:40:08.434Z,7.57
2018-08-20T02:42:45.990Z,9.40
2018-08-20T02:45:23.864Z,7.77
2018-08-20T02:48:06.071Z,10.40
2018-08-20T02:50:44.220Z,9.40
2018-08-20T02:53:23.276Z,8.67
2018-08-20T02:56:00.629Z,9.93
2018-08-20T02:58:45.818Z,7.40
2018-08-20T03:01:26.421Z,7.87
2018-08-20T03:04:03.913Z,7.47
2018-08-20T03:06:40.073Z,8.10
2018-08-20T03:09:17.385Z,7.80
2018-08-20T03:11:53.470Z,9.03
2018-08-20T03:14:30.578Z,8.47
2018-08-20T03:17:07.063Z,9.30
2018-08-20T03:19:43.064Z,10.10
2018-08-20T03:22:18.793Z,12.47
2018-08-20T03:24:59.157Z,8.33
2018-08-20T03:27:34.912Z,11.90
2018-08-20T03:30:11.722Z,9.53
2018-08-20T03:32:47.704Z,10.60
2018-08-20T03:35:24.279Z,8.93
2018-08-20T03:38:00.442Z,8.43
2018-08-20T03:40:36.468Z,8.70
2018-08-20T03:43:12.693Z,10.53
2018-08-20T03:45:48.948Z,9.10
2018-08-20T03:48:24.405Z,9.60
2018-08-20T03:51:12.877Z,12.20
2018-08-20T03:53:53.778Z,10.23
2018-08-20T03:59:29.468Z,8.50
2018-08-20T04:02:09.037Z,11.37
2018-08-20T04:04:45.462Z,11.33
2018-08-20T04:07:23.138Z,9.90
2018-08-20T04:10:00.112Z,9.30
2018-08-20T04:12:38.462Z,11.23
2018-08-20T04:15:15.649Z,9.73
2018-08-20T04:17:55.118Z,9.60
2018-08-20T04:20:32.168Z,9.30
2018-08-20T04:23:10.524Z,12.07
2018-08-20T04:25:48.416Z,11.00
2018-08-20T04:28:29.376Z,10.07
2018-08-20T04:31:06.316Z,9.20
2018-08-20T04:33:44.583Z,14.10
2018-08-20T04:36:21.104Z,12.63
2018-08-20T04:39:00.497Z,9.43
2018-08-20T04:41:37.736Z,10.67
2018-08-20T04:44:25.711Z,13.30
2018-08-20T04:47:02.676Z,12.17
2018-08-20T04:49:40.342Z,11.93
2018-08-20T04:52:22.602Z,9.57
2018-08-20T04:55:05.299Z,12.53
2018-08-20T04:57:42.908Z,9.53
2018-08-20T05:00:20.221Z,11.80
2018-08-20T05:02:58.060Z,11.23
2018-08-20T05:05:35.204Z,9.37
2018-08-20T05:08:12.162Z,11.27
2018-08-20T05:10:49.764Z,11.10
2018-08-20T05:13:28.312Z,12.00
2018-08-20T05:16:06.001Z,9.47
2018-08-20T05:18:44.776Z,10.53
2018-08-20T05:21:31.228Z,12.40
2018-08-20T05:24:10.492Z,9.63
2018-08-20T05:26:49.930Z,9.10
2018-08-20T05:29:31.099Z,8.90
2018-08-20T05:32:09.823Z,10.67
2018-08-20T05:34:49.581Z,11.20
2018-08-20T05:37:27.699Z,10.57
2018-08-20T05:40:05.645Z,10.60
2018-08-20T05:42:46.112Z,10.00
2018-08-20T05:45:27.379Z,11.97
2018-08-20T05:48:05.591Z,12.13
2018-08-20T05:50:42.634Z,10.10
2018-08-20T05:53:20.633Z,10.23
2018-08-20T05:55:58.299Z,12.40
2018-08-20T05:58:35.302Z,11.40
2018-08-20T06:01:12.887Z,9.97
2018-08-20T06:03:53.286Z,8.70
2018-08-20T06:06:30.096Z,9.83
2018-08-20T06:09:10.212Z,9.77
2018-08-20T06:11:47.169Z,9.13
2018-08-20T06:14:25.577Z,9.30
2018-08-20T06:17:03.089Z,8.73
2018-08-20T06:19:45.799Z,8.13
2018-08-20T06:22:22.389Z,9.67
2018-08-20T06:25:02.014Z,10.63
2018-08-20T06:27:38.872Z,9.17
2018-08-20T06:30:31.366Z,8.87
2018-08-20T06:33:12.082Z,9.30
2018-08-20T06:35:53.372Z,8.07
2018-08-20T06:38:30.355Z,9.20
2018-08-20T06:41:08.710Z,8.37
2018-08-20T06:46:30.210Z,8.70
2018-08-20T06:49:08.427Z,10.50
2018-08-20T06:51:45.370Z,8.67
2018-08-20T06:54:21.985Z,9.30
2018-08-20T06:56:59.019Z,7.77
2018-08-20T06:59:36.320Z,9.90
2018-08-20T07:02:16.914Z,11.27
2018-08-20T07:04:55.229Z,9.40
2018-08-20T07:07:35.532Z,9.27
2018-08-20T07:10:14.896Z,11.80
2018-08-20T07:12:52.302Z,11.43
2018-08-20T07:15:37.624Z,12.30
2018-08-20T07:18:21.325Z,14.03
2018-08-20T07:20:58.189Z,12.90
2018-08-20T07:23:41.095Z,13.33
2018-08-20T07:26:21.677Z,13.37
2018-08-20T07:29:04.308Z,12.13
2018-08-20T07:31:41.663Z,11.27
2018-08-20T07:34:20.540Z,12.07
2018-08-20T07:40:10.573Z,10.73
2018-08-20T07:42:47.503Z,10.63
2018-08-20T07:45:24.865Z,12.57
2018-08-20T07:48:23.432Z,12.70
2018-08-20T07:51:01.994Z,10.67
2018-08-20T07:53:39.628Z,10.90
2018-08-20T07:56:19.782Z,12.90
2018-08-20T07:59:03.890Z,10.10
2018-08-20T08:01:43.074Z,10.00
2018-08-20T08:04:25.884Z,11.27
2018-08-20T08:07:04.894Z,10.13
2018-08-20T08:09:42.291Z,14.53
2018-08-20T08:12:21.182Z,13.20
2018-08-20T08:14:59.006Z,12.47
2018-08-20T08:17:37.724Z,14.03
2018-08-20T08:20:15.378Z,10.57
2018-08-20T08:22:52.613Z,13.83
2018-08-20T08:25:30.177Z,11.13
2018-08-20T08:28:10.105Z,12.23
2018-08-20T08:30:48.069Z,11.97
2018-08-20T08:36:31.603Z,11.90
2018-08-20T08:39:12.831Z,10.77
2018-08-20T08:41:49.823Z,11.47
2018-08-20T08:44:29.184Z,11.63
2018-08-20T08:47:06.813Z,9.80
2018-08-20T08:49:44.245Z,12.43
2018-08-20T08:52:20.867Z,13.17
2018-08-20T08:54:59.048Z,10.67
2018-08-20T08:57:37.886Z,11.17
2018-08-20T09:00:18.198Z,10.80
2018-08-20T09:02:56.821Z,9.63
2018-08-20T09:05:34.109Z,11.27
2018-08-20T09:08:12.260Z,10.63
2018-08-20T09:10:54.616Z,13.37
2018-08-20T09:13:37.141Z,11.77
2018-08-20T09:16:15.173Z,10.63
2018-08-20T09:18:59.485Z,13.73
2018-08-20T09:21:37.082Z,11.37
2018-08-20T09:24:14.966Z,10.70
2018-08-20T09:26:54.012Z,9.60
2018-08-20T09:29:30.967Z,13.03
2018-08-20T09:32:12.426Z,10.83
2018-08-20T09:34:52.378Z,10.17
2018-08-20T09:37:30.674Z,10.13
2018-08-20T09:40:08.785Z,13.73
2018-08-20T09:42:46.959Z,12.37
2018-08-20T09:45:25.515Z,8.30
2018-08-20T09:48:02.799Z,11.20
2018-08-20T09:50:39.543Z,9.43
2018-08-20T09:53:19.324Z,9.50
2018-08-20T09:55:56.478Z,10.00
2018-08-20T09:58:34.107Z,10.13
2018-08-20T10:01:10.895Z,10.57
2018-08-20T10:03:48.839Z,8.93
2018-08-20T10:06:25.634Z,11.50
2018-08-20T10:09:03.228Z,8.83
2018-08-20T10:11:41.857Z,8.90
2018-08-20T10:14:20.338Z,8.90
2018-08-20T10:16:59.808Z,8.63
2018-08-20T10:19:44.257Z,9.77
2018-08-20T10:22:22.516Z,9.90
2018-08-20T10:25:02.329Z,9.43
2018-08-20T10:30:28.684Z,10.33
2018-08-20T10:33:07.338Z,9.50
2018-08-20T10:35:45.651Z,10.33
2018-08-20T10:38:24.692Z,8.10
2018-08-20T10:41:03.647Z,12.87
2018-08-20T10:43:42.350Z,9.13
2018-08-20T10:46:26.262Z,8.70
2018-08-20T10:49:03.323Z,8.97
2018-08-20T10:51:41.572Z,11.27
2018-08-20T10:54:18.823Z,8.37
2018-08-20T10:56:56.612Z,9.50
2018-08-20T10:59:33.515Z,9.03
2018-08-20T11:02:11.580Z,9.67
2018-08-20T11:04:55.830Z,10.93
2018-08-20T11:07:34.621Z,8.13
2018-08-20T11:10:11.811Z,7.53
2018-08-20T11:12:49.989Z,10.43
2018-08-20T11:15:27.872Z,8.03
2018-08-20T11:18:07.402Z,9.07
2018-08-20T11:20:44.960Z,10.63
2018-08-20T11:23:25.515Z,7.60
2018-08-20T11:26:15.154Z,10.93
2018-08-20T11:28:54.934Z,12.57
2018-08-20T11:31:41.841Z,9.20
2018-08-20T11:34:20.585Z,9.73
2018-08-20T11:36:57.875Z,9.40
2018-08-20T11:39:34.720Z,10.30
2018-08-20T11:42:12.310Z,8.13
2018-08-20T11:44:50.702Z,10.13
2018-08-20T11:47:32.420Z,8.13
2018-08-20T11:50:11.026Z,9.43
2018-08-20T11:52:51.398Z,9.27
2018-08-20T11:55:29.610Z,8.47
2018-08-20T11:58:07.278Z,10.47
2018-08-20T12:00:45.277Z,8.13
2018-08-20T12:03:22.364Z,8.13
2018-08-20T12:05:59.545Z,9.33
2018-08-20T12:08:37.417Z,9.40
2018-08-20T12:11:17.203Z,8.73
2018-08-20T12:13:54.313Z,10.43
2018-08-20T12:16:34.570Z,11.27
2018-08-20T12:19:12.721Z,13.70
2018-08-20T12:21:50.903Z,8.77
2018-08-20T12:24:27.751Z,12.77
2018-08-20T12:27:04.983Z,9.47
2018-08-20T12:29:42.535Z,11.20
2018-08-20T12:32:26.684Z,9.33
2018-08-20T12:35:03.253Z,9.00
2018-08-20T12:37:41.406Z,9.80
2018-08-20T12:40:18.051Z,9.30
2018-08-20T12:42:55.579Z,8.93
2018-08-20T12:45:33.712Z,7.80
2018-08-20T12:48:12.264Z,8.27
2018-08-20T12:50:49.072Z,8.80
2018-08-20T12:53:29.641Z,7.77
2018-08-20T12:56:06.606Z,8.50
2018-08-20T12:58:51.009Z,9.13
2018-08-20T13:01:28.634Z,11.20
2018-08-20T13:04:06.272Z,7.87
2018-08-20T13:06:43.124Z,7.70
2018-08-20T13:09:21.562Z,8.23
2018-08-20T13:11:58.660Z,8.40
2018-08-20T13:14:36.355Z,8.80
2018-08-20T13:17:13.910Z,13.63
2018-08-20T13:19:51.807Z,8.73
2018-08-20T13:22:28.840Z,9.10
2018-08-20T13:25:06.730Z,10.67
2018-08-20T13:27:43.695Z,8.33
2018-08-20T13:30:21.725Z,9.97
2018-08-20T13:32:58.883Z,10.40
2018-08-20T13:35:40.639Z,8.80
2018-08-20T13:38:17.759Z,7.47
2018-08-20T13:40:54.856Z,8.53
2018-08-20T13:43:31.685Z,8.23
2018-08-20T13:46:16.956Z,7.47
2018-08-20T13:48:53.617Z,8.03
2018-08-20T13:51:30.707Z,8.77
2018-08-20T13:54:11.381Z,7.90
2018-08-20T13:57:07.187Z,9.10
2018-08-20T13:59:52.892Z,7.60
2018-08-20T14:02:30.089Z,10.20
2018-08-20T14:05:07.200Z,8.07
2018-08-20T14:07:44.934Z,10.03
2018-08-20T14:10:21.996Z,13.93
2018-08-20T14:13:00.264Z,7.67
2018-08-20T14:15:39.448Z,10.43
2018-08-20T14:18:17.127Z,7.70
2018-08-20T14:21:07.810Z,7.53
2018-08-20T14:23:52.489Z,7.27
2018-08-20T14:26:30.610Z,7.80
2018-08-20T14:29:10.814Z,7.70
2018-08-20T14:31:47.800Z,8.33
2018-08-20T14:34:28.335Z,6.40
2018-08-20T14:37:05.138Z,10.00
2018-08-20T14:42:24.919Z,4.93
2018-08-20T14:45:04.987Z,5.37
2018-08-20T14:47:42.631Z,5.00
2018-08-20T14:50:19.982Z,5.43
2018-08-20T14:52:57.357Z,5.37
2018-08-20T14:55:36.771Z,5.30
2018-08-20T14:58:15.301Z,5.53
2018-08-20T15:00:58.045Z,5.77
2018-08-20T15:03:35.041Z,5.30
2018-08-20T15:06:18.402Z,5.27
2018-08-20T15:08:55.399Z,7.00
2018-08-20T15:11:34.164Z,5.20
2018-08-20T15:14:13.609Z,5.00
2018-08-20T15:16:52.892Z,8.40
2018-08-20T15:19:32.529Z,7.00
2018-08-20T15:22:15.829Z,6.03
2018-08-20T15:24:53.419Z,5.13
2018-08-20T15:27:31.839Z,6.20
2018-08-20T15:30:12.161Z,8.30
2018-08-20T15:32:52.785Z,7.30
2018-08-20T15:35:32.060Z,6.40
2018-08-20T15:38:09.413Z,7.13
2018-08-20T15:40:47.445Z,6.30
2018-08-20T15:43:25.685Z,7.23
2018-08-20T15:46:04.323Z,6.60
2018-08-20T15:48:41.702Z,7.20
2018-08-20T15:51:19.526Z,9.27
2018-08-20T15:54:01.736Z,6.80
2018-08-20T15:56:39.994Z,7.07
2018-08-20T15:59:17.704Z,8.10
2018-08-20T16:02:02.202Z,8.30
2018-08-20T16:04:44.284Z,9.67
2018-08-20T16:07:21.491Z,10.50
2018-08-20T16:09:59.883Z,9.10
2018-08-20T16:12:36.755Z,8.87
2018-08-20T16:15:16.003Z,10.83
2018-08-20T16:17:53.271Z,9.33
2018-08-20T16:20:33.369Z,8.50
2018-08-20T16:23:10.249Z,11.33
2018-08-20T16:25:51.032Z,7.80
2018-08-20T16:28:28.257Z,7.03
2018-08-20T16:31:09.590Z,7.30
2018-08-20T16:33:48.079Z,7.57
2018-08-20T16:36:29.086Z,8.27
2018-08-20T16:39:08.307Z,7.10
2018-08-20T16:41:45.739Z,9.23
2018-08-20T16:44:24.631Z,6.53
2018-08-20T16:47:02.435Z,8.10
2018-08-20T16:49:39.361Z,9.13
2018-08-20T16:52:16.359Z,12.13
2018-08-20T16:54:56.624Z,6.60
2018-08-20T16:57:35.156Z,9.13
2018-08-20T17:00:13.906Z,8.57
2018-08-20T17:02:53.918Z,6.33
2018-08-20T17:05:40.751Z,11.47
2018-08-20T17:08:24.533Z,8.23
2018-08-20T17:11:01.237Z,8.93
2018-08-20T17:13:38.465Z,8.53
2018-08-20T17:16:16.317Z,6.50
2018-08-20T17:18:56.697Z,8.57
2018-08-20T17:21:33.918Z,8.83
2018-08-20T17:24:12.760Z,13.50
2018-08-20T17:26:51.948Z,6.27
2018-08-20T17:29:31.413Z,6.20
2018-08-20T17:32:10.577Z,6.17
2018-08-20T17:34:47.954Z,9.47
2018-08-20T17:37:26.484Z,10.20
2018-08-20T17:40:10.560Z,9.60
2018-08-20T17:42:51.200Z,7.27
2018-08-20T17:45:28.869Z,6.83
2018-08-20T17:48:05.831Z,6.27
2018-08-20T17:50:44.728Z,9.40
2018-08-20T17:53:22.464Z,5.37
2018-08-20T17:55:59.408Z,5.67
2018-08-20T17:58:38.543Z,5.87
2018-08-20T18:01:16.185Z,6.63
2018-08-20T18:03:54.230Z,6.73
2018-08-20T18:06:55.637Z,6.67
2018-08-20T18:09:32.698Z,5.87
2018-08-20T18:12:13.747Z,5.63
2018-08-20T18:14:57.000Z,5.07
2018-08-20T18:17:34.856Z,5.07
2018-08-20T18:20:14.944Z,5.30
2018-08-20T18:22:54.991Z,7.90
2018-08-20T18:25:36.810Z,5.87
2018-08-20T18:28:16.704Z,6.97
2018-08-20T18:30:59.214Z,5.87
2018-08-20T18:35:45.814Z,9.47
2018-08-20T18:38:22.476Z,6.47
2018-08-20T18:41:00.733Z,7.23
2018-08-20T18:43:41.112Z,8.73
2018-08-20T18:46:23.308Z,5.20
2018-08-20T18:49:02.236Z,8.37
2018-08-20T18:51:45.274Z,6.43
2018-08-20T18:54:26.039Z,6.70
2018-08-20T18:57:07.030Z,6.07
2018-08-20T18:59:44.649Z,5.10
2018-08-20T19:02:50.519Z,8.10
2018-08-20T19:05:30.743Z,4.93
2018-08-20T19:11:07.900Z,6.73
2018-08-20T19:14:08.450Z,4.97
2018-08-20T19:16:48.591Z,5.53
2018-08-20T19:19:32.492Z,5.17
2018-08-20T19:22:13.381Z,5.87
2018-08-20T19:24:53.044Z,5.47
2018-08-20T19:27:33.310Z,6.07
2018-08-20T19:33:05.362Z,5.43
2018-08-20T19:35:46.721Z,6.47
2018-08-20T19:38:27.591Z,4.87
2018-08-20T19:41:14.774Z,8.27
2018-08-20T19:43:54.076Z,6.37
2018-08-20T19:46:39.604Z,5.83
2018-08-20T19:49:25.423Z,10.10
2018-08-20T19:52:16.024Z,6.03
2018-08-20T19:55:17.145Z,5.57
2018-08-20T19:57:59.454Z,5.63
2018-08-20T20:00:44.699Z,5.30
2018-08-20T20:03:26.791Z,5.77
2018-08-20T20:08:59.347Z,9.63
2018-08-20T20:11:45.838Z,5.77
2018-08-20T20:14:30.510Z,8.57
2018-08-20T20:17:08.803Z,6.07
2018-08-20T20:22:41.841Z,5.20
2018-08-20T20:25:22.209Z,6.43
2018-08-20T20:28:01.887Z,5.23
2018-08-20T20:30:45.608Z,5.50
2018-08-20T20:33:22.845Z,6.60
2018-08-20T20:36:06.413Z,5.70
2018-08-20T20:41:31.455Z,9.00
2018-08-20T20:44:11.060Z,6.03
2018-08-20T20:47:00.833Z,7.83
2018-08-20T20:49:42.639Z,7.73
2018-08-20T20:52:26.290Z,5.03
2018-08-20T20:55:10.829Z,5.23
2018-08-20T20:57:50.533Z,6.77
2018-08-20T21:00:27.765Z,10.67
2018-08-20T21:03:14.198Z,6.63
2018-08-20T21:05:53.630Z,6.07
2018-08-20T21:08:42.488Z,7.20
2018-08-20T21:11:24.231Z,6.33
2018-08-20T21:14:05.132Z,5.90
2018-08-20T21:16:42.027Z,6.40
2018-08-20T21:19:21.321Z,5.83
2018-08-20T21:22:01.220Z,5.97
2018-08-20T21:24:44.489Z,6.77
2018-08-20T21:27:31.283Z,7.17
2018-08-20T21:32:54.647Z,8.00
2018-08-20T21:35:32.483Z,5.97
2018-08-20T21:38:09.643Z,7.03
2018-08-20T21:40:47.584Z,7.73
2018-08-20T21:43:25.582Z,6.93
2018-08-20T21:46:07.277Z,5.97
2018-08-20T21:48:44.802Z,8.10
2018-08-20T21:51:34.914Z,6.53
2018-08-20T21:54:11.709Z,6.97
2018-08-20T21:56:54.366Z,7.83
2018-08-20T21:59:31.886Z,7.80
2018-08-20T22:02:09.135Z,6.40
2018-08-20T22:04:47.867Z,7.73
2018-08-20T22:07:29.669Z,6.13
2018-08-20T22:10:06.815Z,8.80
2018-08-20T22:12:46.335Z,7.50
2018-08-20T22:15:25.221Z,7.83
2018-08-20T22:18:06.780Z,9.20
2018-08-20T22:20:45.294Z,6.63
2018-08-20T22:23:39.083Z,7.37
2018-08-20T22:26:14.348Z,7.93
2018-08-20T22:28:58.976Z,6.77
2018-08-20T22:34:43.073Z,6.73
2018-08-20T22:37:20.868Z,7.50
2018-08-20T22:40:07.771Z,7.60
2018-08-20T22:42:56.785Z,6.97
2018-08-20T22:45:33.612Z,9.30
2018-08-20T22:48:10.446Z,6.43
2018-08-20T22:50:57.849Z,6.70
2018-08-20T22:53:35.522Z,9.83
2018-08-20T22:56:21.887Z,7.40
2018-08-20T22:59:05.842Z,6.57
2018-08-20T23:01:49.181Z,9.27
2018-08-20T23:04:25.838Z,7.17
2018-08-20T23:07:06.853Z,7.53
2018-08-20T23:09:43.264Z,9.27
2018-08-20T23:12:25.378Z,6.63
2018-08-20T23:15:02.219Z,8.87
2018-08-20T23:17:49.144Z,7.27
2018-08-20T23:20:30.774Z,8.50
2018-08-20T23:23:19.985Z,9.20
2018-08-20T23:26:01.587Z,9.50
2018-08-20T23:28:40.452Z,8.20
2018-08-20T23:31:16.836Z,7.90
2018-08-20T23:33:54.436Z,11.27
2018-08-20T23:36:34.225Z,7.50
2018-08-20T23:39:20.243Z,8.23
2018-08-20T23:41:57.515Z,7.77
2018-08-20T23:44:34.448Z,7.93
2018-08-20T23:47:11.043Z,7.77
2018-08-20T23:49:48.166Z,8.90
2018-08-20T23:52:24.705Z,10.20
2018-08-20T23:55:08.890Z,7.60
2018-08-20T23:57:46.041Z,7.23
